sensor_id;sensor_type;location;lat;lon;timestamp;P1;durP1;ratioP1;P2;durP2;ratioP2
62151;SDS011;48139;47.474;19.034;2024-02-23T04:44:31;6.40;;;3.33;;
62151;SDS011;48139;47.474;19.034;2024-02-23T04:47:34;6.93;;;2.95;;
62151;SDS011;48139;47.474;19.034;2024-02-23T04:50:37;6.23;;;2.80;;
62151;SDS011;48139;47.474;19.034;2024-02-23T04:53:40;7.03;;;2.87;;
62151;SDS011;48139;47.474;19.034;2024-02-23T04:56:42;6.50;;;2.70;;
62151;SDS011;48139;47.474;19.034;2024-02-23T04:59:45;5.00;;;2.20;;
62151;SDS011;48139;47.474;19.034;2024-02-23T05:02:48;5.70;;;2.57;;
62151;SDS011;48139;47.474;19.034;2024-02-23T05:05:51;4.82;;;2.58;;
62151;SDS011;48139;47.474;19.034;2024-02-23T05:08:56;4.85;;;2.30;;
62151;SDS011;48139;47.474;19.034;2024-02-23T05:11:59;4.87;;;2.12;;
62151;SDS011;48139;47.474;19.034;2024-02-23T05:15:02;4.43;;;2.95;;
62151;SDS011;48139;47.474;19.034;2024-02-23T05:18:05;2.75;;;2.10;;
62151;SDS011;48139;47.474;19.034;2024-02-23T05:21:08;4.32;;;2.15;;
62151;SDS011;48139;47.474;19.034;2024-02-23T05:27:14;6.80;;;3.08;;
62151;SDS011;48139;47.474;19.034;2024-02-23T05:30:17;6.35;;;2.33;;
62151;SDS011;48139;47.474;19.034;2024-02-23T05:33:19;8.98;;;2.97;;
62151;SDS011;48139;47.474;19.034;2024-02-23T05:36:25;5.72;;;3.20;;
62151;SDS011;48139;47.474;19.034;2024-02-23T05:39:27;4.78;;;2.58;;
62151;SDS011;48139;47.474;19.034;2024-02-23T05:42:31;8.50;;;3.10;;
62151;SDS011;48139;47.474;19.034;2024-02-23T05:45:38;5.62;;;2.60;;
62151;SDS011;48139;47.474;19.034;2024-02-23T05:48:40;6.43;;;3.58;;
62151;SDS011;48139;47.474;19.034;2024-02-23T05:51:43;5.35;;;2.37;;
62151;SDS011;48139;47.474;19.034;2024-02-23T05:54:46;7.10;;;2.60;;
62151;SDS011;48139;47.474;19.034;2024-02-23T05:57:52;6.12;;;2.70;;
62151;SDS011;48139;47.474;19.034;2024-02-23T06:00:55;5.43;;;2.63;;
62151;SDS011;48139;47.474;19.034;2024-02-23T06:03:58;6.22;;;3.17;;
62151;SDS011;48139;47.474;19.034;2024-02-23T06:07:00;5.35;;;2.30;;
62151;SDS011;48139;47.474;19.034;2024-02-23T06:10:04;5.37;;;2.83;;
62151;SDS011;48139;47.474;19.034;2024-02-23T06:16:10;7.15;;;2.78;;
62151;SDS011;48139;47.474;19.034;2024-02-23T06:22:16;5.62;;;2.67;;
62151;SDS011;48139;47.474;19.034;2024-02-23T06:25:24;4.85;;;2.25;;
62151;SDS011;48139;47.474;19.034;2024-02-23T06:28:27;9.05;;;2.87;;
62151;SDS011;48139;47.474;19.034;2024-02-23T06:31:29;5.78;;;2.72;;
62151;SDS011;48139;47.474;19.034;2024-02-23T06:34:32;6.47;;;2.83;;
62151;SDS011;48139;47.474;19.034;2024-02-23T06:37:35;6.10;;;2.85;;
62151;SDS011;48139;47.474;19.034;2024-02-23T06:40:38;6.25;;;3.35;;
62151;SDS011;48139;47.474;19.034;2024-02-23T06:43:53;6.10;;;2.85;;
62151;SDS011;48139;47.474;19.034;2024-02-23T06:46:56;6.18;;;3.03;;
62151;SDS011;48139;47.474;19.034;2024-02-23T06:49:59;5.40;;;3.05;;
62151;SDS011;48139;47.474;19.034;2024-02-23T06:56:05;6.70;;;3.20;;
62151;SDS011;48139;47.474;19.034;2024-02-23T06:59:08;7.87;;;3.15;;
62151;SDS011;48139;47.474;19.034;2024-02-23T07:02:11;7.03;;;2.78;;
62151;SDS011;48139;47.474;19.034;2024-02-23T07:05:14;6.12;;;3.30;;
62151;SDS011;48139;47.474;19.034;2024-02-23T07:08:17;7.97;;;3.35;;
62151;SDS011;48139;47.474;19.034;2024-02-23T07:11:20;7.97;;;3.40;;
62151;SDS011;48139;47.474;19.034;2024-02-23T07:14:23;6.87;;;3.57;;
62151;SDS011;48139;47.474;19.034;2024-02-23T07:17:26;6.05;;;3.05;;
62151;SDS011;48139;47.474;19.034;2024-02-23T07:20:30;8.68;;;5.25;;
62151;SDS011;48139;47.474;19.034;2024-02-23T07:23:33;7.93;;;3.70;;
62151;SDS011;48139;47.474;19.034;2024-02-23T07:26:37;7.73;;;4.37;;
62151;SDS011;48139;47.474;19.034;2024-02-23T07:29:40;6.65;;;3.87;;
62151;SDS011;48139;47.474;19.034;2024-02-23T07:32:43;6.50;;;3.63;;
62151;SDS011;48139;47.474;19.034;2024-02-23T07:35:49;7.12;;;4.72;;
62151;SDS011;48139;47.474;19.034;2024-02-23T07:38:51;8.75;;;4.10;;
62151;SDS011;48139;47.474;19.034;2024-02-23T07:41:55;7.65;;;4.22;;
62151;SDS011;48139;47.474;19.034;2024-02-23T07:44:57;9.30;;;3.97;;
62151;SDS011;48139;47.474;19.034;2024-02-23T07:48:01;6.07;;;3.53;;
62151;SDS011;48139;47.474;19.034;2024-02-23T07:51:05;8.20;;;3.60;;
62151;SDS011;48139;47.474;19.034;2024-02-23T07:54:08;8.23;;;3.37;;
62151;SDS011;48139;47.474;19.034;2024-02-23T07:57:10;9.80;;;4.30;;
62151;SDS011;48139;47.474;19.034;2024-02-23T08:00:13;6.45;;;3.30;;
62151;SDS011;48139;47.474;19.034;2024-02-23T08:03:16;8.18;;;3.83;;
62151;SDS011;48139;47.474;19.034;2024-02-23T08:06:19;8.55;;;4.28;;
62151;SDS011;48139;47.474;19.034;2024-02-23T08:09:21;13.05;;;4.62;;
62151;SDS011;48139;47.474;19.034;2024-02-23T08:15:28;8.17;;;4.77;;
62151;SDS011;48139;47.474;19.034;2024-02-23T08:18:31;8.90;;;3.92;;
62151;SDS011;48139;47.474;19.034;2024-02-23T08:21:34;7.45;;;4.45;;
62151;SDS011;48139;47.474;19.034;2024-02-23T08:24:36;8.18;;;3.53;;
62151;SDS011;48139;47.474;19.034;2024-02-23T08:27:40;13.43;;;5.57;;
62151;SDS011;48139;47.474;19.034;2024-02-23T08:30:43;9.77;;;5.15;;
62151;SDS011;48139;47.474;19.034;2024-02-23T08:33:45;6.20;;;3.67;;
62151;SDS011;48139;47.474;19.034;2024-02-23T08:39:52;8.70;;;4.82;;
62151;SDS011;48139;47.474;19.034;2024-02-23T08:42:55;11.52;;;4.97;;
62151;SDS011;48139;47.474;19.034;2024-02-23T08:45:57;7.22;;;4.12;;
62151;SDS011;48139;47.474;19.034;2024-02-23T08:49:07;8.65;;;4.40;;
62151;SDS011;48139;47.474;19.034;2024-02-23T08:52:10;9.35;;;4.70;;
62151;SDS011;48139;47.474;19.034;2024-02-23T08:55:13;8.80;;;4.30;;
62151;SDS011;48139;47.474;19.034;2024-02-23T08:58:16;8.10;;;3.85;;
62151;SDS011;48139;47.474;19.034;2024-02-23T09:01:18;7.65;;;4.10;;
62151;SDS011;48139;47.474;19.034;2024-02-23T09:04:21;11.20;;;4.45;;
62151;SDS011;48139;47.474;19.034;2024-02-23T09:07:25;8.88;;;5.20;;
62151;SDS011;48139;47.474;19.034;2024-02-23T09:10:28;7.35;;;4.28;;
62151;SDS011;48139;47.474;19.034;2024-02-23T09:13:30;11.07;;;4.68;;
62151;SDS011;48139;47.474;19.034;2024-02-23T09:16:33;13.18;;;6.15;;
62151;SDS011;48139;47.474;19.034;2024-02-23T09:19:36;8.13;;;4.25;;
62151;SDS011;48139;47.474;19.034;2024-02-23T09:22:39;14.20;;;4.85;;
62151;SDS011;48139;47.474;19.034;2024-02-23T09:25:42;12.45;;;5.18;;
62151;SDS011;48139;47.474;19.034;2024-02-23T09:28:46;10.18;;;5.80;;
62151;SDS011;48139;47.474;19.034;2024-02-23T09:31:48;9.13;;;5.57;;
62151;SDS011;48139;47.474;19.034;2024-02-23T09:34:51;8.45;;;5.00;;
62151;SDS011;48139;47.474;19.034;2024-02-23T09:37:54;10.13;;;4.57;;
62151;SDS011;48139;47.474;19.034;2024-02-23T09:40:57;8.30;;;4.37;;
62151;SDS011;48139;47.474;19.034;2024-02-23T09:44:02;9.65;;;4.78;;
62151;SDS011;48139;47.474;19.034;2024-02-23T09:47:05;7.90;;;4.22;;
62151;SDS011;48139;47.474;19.034;2024-02-23T09:50:12;10.85;;;4.03;;
62151;SDS011;48139;47.474;19.034;2024-02-23T09:53:16;6.65;;;3.97;;
62151;SDS011;48139;47.474;19.034;2024-02-23T09:56:20;8.82;;;4.72;;
62151;SDS011;48139;47.474;19.034;2024-02-23T09:59:28;8.20;;;3.92;;
62151;SDS011;48139;47.474;19.034;2024-02-23T10:02:34;8.25;;;3.47;;
62151;SDS011;48139;47.474;19.034;2024-02-23T10:05:38;6.78;;;3.65;;
62151;SDS011;48139;47.474;19.034;2024-02-23T10:08:45;6.93;;;3.72;;
62151;SDS011;48139;47.474;19.034;2024-02-23T10:11:54;9.55;;;4.00;;
62151;SDS011;48139;47.474;19.034;2024-02-23T10:14:57;7.37;;;4.03;;
62151;SDS011;48139;47.474;19.034;2024-02-23T10:18:00;8.40;;;4.35;;
62151;SDS011;48139;47.474;19.034;2024-02-23T10:21:05;7.80;;;4.37;;
62151;SDS011;48139;47.474;19.034;2024-02-23T10:24:08;7.35;;;3.42;;
62151;SDS011;48139;47.474;19.034;2024-02-23T10:27:11;8.00;;;3.47;;
62151;SDS011;48139;47.474;19.034;2024-02-23T10:30:14;7.47;;;4.00;;
62151;SDS011;48139;47.474;19.034;2024-02-23T10:33:18;5.78;;;3.20;;
62151;SDS011;48139;47.474;19.034;2024-02-23T10:36:26;6.60;;;4.15;;
62151;SDS011;48139;47.474;19.034;2024-02-23T10:39:32;9.95;;;4.18;;
62151;SDS011;48139;47.474;19.034;2024-02-23T10:42:39;8.88;;;3.97;;
62151;SDS011;48139;47.474;19.034;2024-02-23T10:45:48;9.13;;;4.65;;
62151;SDS011;48139;47.474;19.034;2024-02-23T10:48:51;10.38;;;4.85;;
62151;SDS011;48139;47.474;19.034;2024-02-23T10:51:56;8.52;;;4.62;;
62151;SDS011;48139;47.474;19.034;2024-02-23T10:55:00;9.82;;;4.90;;
62151;SDS011;48139;47.474;19.034;2024-02-23T10:58:06;10.57;;;5.68;;
62151;SDS011;48139;47.474;19.034;2024-02-23T11:01:14;7.37;;;4.37;;
62151;SDS011;48139;47.474;19.034;2024-02-23T11:04:17;9.88;;;4.97;;
62151;SDS011;48139;47.474;19.034;2024-02-23T11:07:22;7.68;;;4.22;;
62151;SDS011;48139;47.474;19.034;2024-02-23T11:10:27;7.72;;;4.32;;
62151;SDS011;48139;47.474;19.034;2024-02-23T11:13:30;11.23;;;4.28;;
62151;SDS011;48139;47.474;19.034;2024-02-23T11:16:38;7.78;;;3.90;;
62151;SDS011;48139;47.474;19.034;2024-02-23T11:19:45;15.50;;;5.12;;
62151;SDS011;48139;47.474;19.034;2024-02-23T11:22:51;11.43;;;4.47;;
62151;SDS011;48139;47.474;19.034;2024-02-23T11:26:13;6.93;;;3.78;;
62151;SDS011;48139;47.474;19.034;2024-02-23T11:29:16;8.32;;;5.20;;
62151;SDS011;48139;47.474;19.034;2024-02-23T11:32:23;8.77;;;5.37;;
62151;SDS011;48139;47.474;19.034;2024-02-23T11:35:46;11.27;;;4.97;;
62151;SDS011;48139;47.474;19.034;2024-02-23T11:38:52;10.02;;;5.07;;
62151;SDS011;48139;47.474;19.034;2024-02-23T11:41:56;6.78;;;4.80;;
62151;SDS011;48139;47.474;19.034;2024-02-23T11:45:02;8.07;;;4.43;;
62151;SDS011;48139;47.474;19.034;2024-02-23T11:48:05;9.85;;;4.75;;
62151;SDS011;48139;47.474;19.034;2024-02-23T11:51:09;7.72;;;3.15;;
62151;SDS011;48139;47.474;19.034;2024-02-23T11:54:15;6.97;;;3.60;;
62151;SDS011;48139;47.474;19.034;2024-02-23T11:57:18;7.37;;;3.37;;
62151;SDS011;48139;47.474;19.034;2024-02-23T12:00:21;6.47;;;3.87;;
62151;SDS011;48139;47.474;19.034;2024-02-23T12:03:26;6.62;;;3.58;;
62151;SDS011;48139;47.474;19.034;2024-02-23T12:06:29;7.50;;;4.07;;
62151;SDS011;48139;47.474;19.034;2024-02-23T12:09:33;9.38;;;4.00;;
62151;SDS011;48139;47.474;19.034;2024-02-23T12:12:35;7.57;;;3.08;;
62151;SDS011;48139;47.474;19.034;2024-02-23T12:15:39;5.90;;;3.30;;
62151;SDS011;48139;47.474;19.034;2024-02-23T12:18:41;6.60;;;3.90;;
62151;SDS011;48139;47.474;19.034;2024-02-23T12:21:46;6.07;;;2.97;;
62151;SDS011;48139;47.474;19.034;2024-02-23T12:24:50;6.62;;;3.20;;
62151;SDS011;48139;47.474;19.034;2024-02-23T12:27:55;6.90;;;3.53;;
62151;SDS011;48139;47.474;19.034;2024-02-23T12:31:02;6.68;;;3.75;;
62151;SDS011;48139;47.474;19.034;2024-02-23T12:34:06;6.60;;;3.12;;
62151;SDS011;48139;47.474;19.034;2024-02-23T12:37:10;7.55;;;4.55;;
62151;SDS011;48139;47.474;19.034;2024-02-23T12:40:14;6.15;;;2.87;;
62151;SDS011;48139;47.474;19.034;2024-02-23T12:43:17;6.62;;;3.00;;
62151;SDS011;48139;47.474;19.034;2024-02-23T12:46:20;9.75;;;4.25;;
62151;SDS011;48139;47.474;19.034;2024-02-23T12:49:23;8.53;;;4.13;;
62151;SDS011;48139;47.474;19.034;2024-02-23T12:52:26;6.85;;;3.67;;
62151;SDS011;48139;47.474;19.034;2024-02-23T12:55:30;7.10;;;3.22;;
62151;SDS011;48139;47.474;19.034;2024-02-23T12:58:33;7.40;;;3.90;;
62151;SDS011;48139;47.474;19.034;2024-02-23T13:01:37;8.55;;;4.45;;
62151;SDS011;48139;47.474;19.034;2024-02-23T13:04:45;20.70;;;4.95;;
62151;SDS011;48139;47.474;19.034;2024-02-23T13:07:52;9.40;;;5.55;;
62151;SDS011;48139;47.474;19.034;2024-02-23T13:10:54;7.53;;;4.43;;
62151;SDS011;48139;47.474;19.034;2024-02-23T13:13:57;11.55;;;5.28;;
62151;SDS011;48139;47.474;19.034;2024-02-23T13:17:00;11.70;;;5.43;;
62151;SDS011;48139;47.474;19.034;2024-02-23T13:20:02;11.47;;;5.57;;
62151;SDS011;48139;47.474;19.034;2024-02-23T13:23:13;11.10;;;6.40;;
62151;SDS011;48139;47.474;19.034;2024-02-23T13:26:18;8.77;;;5.22;;
62151;SDS011;48139;47.474;19.034;2024-02-23T13:29:21;10.70;;;6.17;;
62151;SDS011;48139;47.474;19.034;2024-02-23T13:32:23;11.57;;;6.75;;
62151;SDS011;48139;47.474;19.034;2024-02-23T13:35:26;12.48;;;5.65;;
62151;SDS011;48139;47.474;19.034;2024-02-23T13:38:29;12.82;;;6.75;;
62151;SDS011;48139;47.474;19.034;2024-02-23T13:41:32;12.13;;;7.22;;
62151;SDS011;48139;47.474;19.034;2024-02-23T13:44:36;13.40;;;7.97;;
62151;SDS011;48139;47.474;19.034;2024-02-23T13:47:39;13.88;;;7.45;;
62151;SDS011;48139;47.474;19.034;2024-02-23T13:50:42;10.53;;;5.73;;
62151;SDS011;48139;47.474;19.034;2024-02-23T13:53:45;13.68;;;8.10;;
62151;SDS011;48139;47.474;19.034;2024-02-23T13:56:47;13.67;;;7.73;;
62151;SDS011;48139;47.474;19.034;2024-02-23T13:59:50;13.30;;;6.97;;
62151;SDS011;48139;47.474;19.034;2024-02-23T14:02:53;11.47;;;7.33;;
62151;SDS011;48139;47.474;19.034;2024-02-23T14:05:56;13.68;;;8.07;;
62151;SDS011;48139;47.474;19.034;2024-02-23T14:08:58;14.57;;;8.40;;
62151;SDS011;48139;47.474;19.034;2024-02-23T14:12:01;14.82;;;8.27;;
62151;SDS011;48139;47.474;19.034;2024-02-23T14:15:04;14.00;;;7.95;;
62151;SDS011;48139;47.474;19.034;2024-02-23T14:18:07;13.23;;;7.30;;
62151;SDS011;48139;47.474;19.034;2024-02-23T14:21:10;13.43;;;8.13;;
62151;SDS011;48139;47.474;19.034;2024-02-23T14:24:13;13.90;;;8.63;;
62151;SDS011;48139;47.474;19.034;2024-02-23T14:27:16;15.95;;;8.00;;
62151;SDS011;48139;47.474;19.034;2024-02-23T14:30:19;12.20;;;7.03;;
62151;SDS011;48139;47.474;19.034;2024-02-23T14:33:21;16.58;;;8.88;;
62151;SDS011;48139;47.474;19.034;2024-02-23T14:36:24;13.23;;;7.95;;
62151;SDS011;48139;47.474;19.034;2024-02-23T14:39:26;15.77;;;7.90;;
62151;SDS011;48139;47.474;19.034;2024-02-23T14:42:29;13.80;;;7.93;;
62151;SDS011;48139;47.474;19.034;2024-02-23T14:45:32;13.88;;;8.15;;
62151;SDS011;48139;47.474;19.034;2024-02-23T14:48:34;17.35;;;9.23;;
62151;SDS011;48139;47.474;19.034;2024-02-23T14:51:37;17.53;;;7.80;;
62151;SDS011;48139;47.474;19.034;2024-02-23T14:54:40;12.30;;;7.40;;
62151;SDS011;48139;47.474;19.034;2024-02-23T14:57:43;14.25;;;7.93;;
62151;SDS011;48139;47.474;19.034;2024-02-23T15:00:46;10.80;;;7.60;;
62151;SDS011;48139;47.474;19.034;2024-02-23T15:03:49;12.15;;;7.25;;
62151;SDS011;48139;47.474;19.034;2024-02-23T15:06:52;13.10;;;6.93;;
62151;SDS011;48139;47.474;19.034;2024-02-23T15:09:54;14.10;;;8.40;;
62151;SDS011;48139;47.474;19.034;2024-02-23T15:13:00;18.00;;;8.10;;
62151;SDS011;48139;47.474;19.034;2024-02-23T15:16:03;14.87;;;7.13;;
62151;SDS011;48139;47.474;19.034;2024-02-23T15:19:06;11.20;;;6.57;;
62151;SDS011;48139;47.474;19.034;2024-02-23T15:22:10;14.80;;;7.18;;
62151;SDS011;48139;47.474;19.034;2024-02-23T15:25:16;11.55;;;7.35;;
62151;SDS011;48139;47.474;19.034;2024-02-23T15:28:19;12.18;;;7.07;;
62151;SDS011;48139;47.474;19.034;2024-02-23T15:31:25;11.82;;;7.55;;
62151;SDS011;48139;47.474;19.034;2024-02-23T15:34:27;15.93;;;8.40;;
62151;SDS011;48139;47.474;19.034;2024-02-23T15:37:30;10.18;;;6.75;;
62151;SDS011;48139;47.474;19.034;2024-02-23T15:40:33;16.47;;;9.93;;
62151;SDS011;48139;47.474;19.034;2024-02-23T15:43:36;13.68;;;7.43;;
62151;SDS011;48139;47.474;19.034;2024-02-23T15:46:38;12.18;;;7.45;;
62151;SDS011;48139;47.474;19.034;2024-02-23T15:49:41;16.33;;;9.35;;
62151;SDS011;48139;47.474;19.034;2024-02-23T15:53:03;13.05;;;8.55;;
62151;SDS011;48139;47.474;19.034;2024-02-23T15:56:07;13.62;;;8.50;;
62151;SDS011;48139;47.474;19.034;2024-02-23T15:59:10;13.07;;;7.87;;
62151;SDS011;48139;47.474;19.034;2024-02-23T16:02:13;12.60;;;7.12;;
62151;SDS011;48139;47.474;19.034;2024-02-23T16:05:16;25.90;;;8.52;;
62151;SDS011;48139;47.474;19.034;2024-02-23T16:08:21;10.67;;;6.43;;
62151;SDS011;48139;47.474;19.034;2024-02-23T16:11:45;12.82;;;8.18;;
62151;SDS011;48139;47.474;19.034;2024-02-23T16:14:49;14.23;;;8.40;;
62151;SDS011;48139;47.474;19.034;2024-02-23T16:17:52;19.73;;;10.45;;
62151;SDS011;48139;47.474;19.034;2024-02-23T16:20:55;15.00;;;8.75;;
62151;SDS011;48139;47.474;19.034;2024-02-23T16:23:58;15.05;;;9.18;;
62151;SDS011;48139;47.474;19.034;2024-02-23T16:27:02;10.52;;;7.37;;
62151;SDS011;48139;47.474;19.034;2024-02-23T16:30:07;12.73;;;8.45;;
62151;SDS011;48139;47.474;19.034;2024-02-23T16:33:10;14.77;;;8.10;;
62151;SDS011;48139;47.474;19.034;2024-02-23T16:36:13;13.35;;;7.60;;
62151;SDS011;48139;47.474;19.034;2024-02-23T16:39:19;14.52;;;8.20;;
62151;SDS011;48139;47.474;19.034;2024-02-23T16:42:22;14.65;;;9.27;;
62151;SDS011;48139;47.474;19.034;2024-02-23T16:45:25;13.90;;;8.27;;
